Latest Weather Observations for Munglinup West

IDW60801

Issued at 5:32 pm WST Monday 25 May 2015 (issued every 30 minutes, with the page automatically refreshed every 10 minutes)

About weather observations | Map of weather stations | Latest weather observations for WA | Other Formats
Station Details ID: 012044 Name: MUNGLINUP WEST Lat: -33.55 Lon: 120.70 Height: 220.0 m
Data from the previous 72 hours. | See also: Recent months at Munglinup West
Date/Time
WST
Temp
°C
App
Temp
°C
Dew
Point
Rel
Hum
%
Delta-T
°C
Wind Press
QNH
hPa
Press
MSL
hPa
Rain
since 9 am
mm
Dir
 
Spd
km/h
Gust
km/h
Spd
kts
Gust
kts
25/05:30pm 14.1 12.4 12.3 89 1.0 ESE 13 15 7 8 1020.4 1020.1 0.0
25/05:00pm 14.7 13.3 12.2 85 1.4 SE 11 13 6 7 1020.3 1020.0 0.0
25/04:30pm 16.5 15.0 13.0 80 2.0 SSE 13 17 7 9 1020.0 1019.7 0.0
25/04:00pm 17.7 15.7 12.8 73 2.8 S 15 20 8 11 1020.1 1019.8 0.0
25/03:30pm 19.3 18.1 11.6 61 4.3 SSE 9 11 5 6 1020.0 1019.7 0.0
25/03:00pm 19.6 19.0 11.6 60 4.4 SE 6 7 3 4 1020.1 1019.8 0.0
25/02:30pm 20.0 19.2 11.2 57 4.9 SSE 6 7 3 4 1019.9 1019.6 0.0
25/02:00pm 20.8 20.3 12.0 57 5.0 S 6 7 3 4 1019.9 1019.6 0.0
25/01:30pm 19.5 18.3 11.5 60 4.4 WSW 9 11 5 6 1020.2 1019.9 0.0
25/01:00pm 20.7 21.0 12.1 58 4.8 SW 2 6 1 3 1020.3 1020.0 0.0
25/12:30pm 19.1 18.4 11.9 63 4.0 W 7 13 4 7 1020.8 1020.5 0.0
25/12:00pm 19.0 19.1 12.7 67 3.6 WNW 4 9 2 5 1021.0 1020.7 0.0
25/11:30am 18.1 17.3 12.8 71 3.0 NNW 9 15 5 8 1021.6 1021.3 0.0
25/11:00am 16.9 15.8 13.2 79 2.1 N 11 17 6 9 1022.2 1021.9 0.0
25/10:30am 14.9 13.3 12.9 88 1.1 N 13 19 7 10 1022.8 1022.6 0.0
25/10:00am 14.3 12.8 14.3 100 0.0 N 15 19 8 10 1022.7 1022.5 0.0
25/09:30am 13.1 12.0 13.1 100 0.0 N 11 17 6 9 1022.9 1022.7 0.0
25/09:00am 11.5 9.9 11.5 100 0.0 N 11 19 6 10 1023.0 1022.8 0.4
25/08:30am 10.4 8.1 10.4 100 0.0 NNE 13 19 7 10 1022.9 1022.7 0.4
25/08:00am 9.2 7.7 9.2 100 0.0 N 7 11 4 6 1022.9 1022.7 0.4
25/07:30am 9.6 8.4 9.6 100 0.0 N 6 9 3 5 1022.7 1022.5 0.4
25/07:00am 9.1 8.2 9.1 100 0.0 NNE 4 6 2 3 1022.7 1022.5 0.4
25/06:30am 9.4 8.5 9.4 100 0.0 N 4 6 2 3 1022.5 1022.3 0.4
25/06:00am 9.6 8.4 9.6 100 0.0 NNE 6 9 3 5 1022.5 1022.3 0.4
25/05:30am 9.8 7.7 9.8 100 0.0 NNE 11 15 6 8 1022.4 1022.2 0.4
25/05:00am 9.9 7.8 9.9 100 0.0 NE 11 15 6 8 1022.2 1021.9 0.4
25/04:30am 10.4 8.5 10.4 100 0.0 NNE 11 15 6 8 1022.3 1022.0 0.4
25/04:00am 10.5 9.0 10.5 100 0.0 NNE 9 11 5 6 1022.4 1022.2 0.4
25/03:30am 9.9 7.8 9.9 100 0.0 NE 11 13 6 7 1022.4 1022.2 0.4
25/03:00am 10.3 8.0 10.3 100 0.0 NE 13 17 7 9 1022.3 1022.0 0.4
25/02:30am 10.2 7.5 10.2 100 0.0 NE 15 19 8 10 1022.4 1022.2 0.4
25/02:00am 9.6 7.5 9.6 100 0.0 NE 11 13 6 7 1022.4 1022.2 0.2
25/01:30am 10.1 7.7 10.1 100 0.0 NE 13 15 7 8 1022.4 1022.2 0.2
25/01:00am 10.5 8.2 10.5 100 0.0 NE 13 17 7 9 1022.4 1022.2 0.2
25/12:30am 10.4 8.1 10.4 100 0.0 NE 13 17 7 9 1022.6 1022.4 0.2
25/12:00am 10.4 7.7 10.4 100 0.0 NE 15 19 8 10 1022.7 1022.5 0.2
 
Date/Time
WST
Temp
°C
App
Temp
°C
Dew
Point
Rel
Hum
%
Delta-T
°C
Wind Press
QNH
hPa
Press
MSL
hPa
Rain
since 9 am
mm
Dir
 
Spd
km/h
Gust
km/h
Spd
kts
Gust
kts
24/11:30pm 10.8 8.2 10.8 100 0.0 NE 15 17 8 9 1022.6 1022.4 0.2
24/11:00pm 10.8 8.6 10.8 100 0.0 NE 13 17 7 9 1022.7 1022.5 0.2
24/10:30pm 11.0 8.5 11.0 100 0.0 ENE 15 20 8 11 1022.6 1022.4 0.2
24/10:00pm 10.8 7.8 10.8 100 0.0 ENE 17 20 9 11 1022.7 1022.5 0.2
24/09:30pm 10.4 8.5 10.4 100 0.0 E 11 13 6 7 1022.9 1022.7 0.2
24/09:00pm 10.5 9.0 10.5 100 0.0 E 9 13 5 7 1022.9 1022.7 0.2
24/08:30pm 11.1 9.0 11.1 100 0.0 ENE 13 17 7 9 1022.8 1022.6 0.0
24/08:00pm 11.0 8.9 11.0 100 0.0 ENE 13 17 7 9 1022.8 1022.6 0.0
24/07:30pm 11.9 10.0 11.7 99 0.1 ENE 13 17 7 9 1022.7 1022.5 0.0
24/07:00pm 11.6 9.9 11.3 98 0.2 E 11 13 6 7 1022.7 1022.5 0.0
24/06:30pm 11.8 10.1 11.2 96 0.3 E 11 13 6 7 1022.4 1022.2 0.0
24/06:00pm 12.6 11.0 11.7 94 0.5 E 11 13 6 7 1022.2 1021.9 0.0
24/05:30pm 13.1 11.5 11.7 91 0.8 ESE 11 13 6 7 1021.9 1021.6 0.0
24/05:00pm 14.1 12.3 12.1 88 1.1 E 13 17 7 9 1021.8 1021.5 0.0
24/04:30pm 15.3 14.0 12.4 83 1.6 ESE 11 15 6 8 1021.6 1021.3 0.0
24/04:00pm 16.4 14.4 12.8 79 2.0 ESE 15 20 8 11 1021.4 1021.1 0.0
24/03:30pm 16.4 15.2 12.8 79 2.0 ESE 11 17 6 9 1021.3 1021.0 0.0
24/03:00pm 17.3 15.8 13.0 76 2.4 ESE 13 17 7 9 1021.2 1020.9 0.0
24/02:30pm 17.5 16.6 12.6 73 2.8 ESE 9 13 5 7 1021.2 1020.9 0.0
24/02:00pm 17.9 17.5 12.4 70 3.1 ESE 6 9 3 5 1021.1 1020.8 0.0
24/01:30pm 17.9 17.0 11.5 66 3.5 ESE 7 13 4 7 1021.3 1021.0 0.0
24/01:00pm 18.9 18.2 11.9 64 3.9 S 7 13 4 7 1021.5 1021.2 0.0
24/12:30pm 18.0 17.5 12.2 69 3.2 S 6 11 3 6 1021.7 1021.4 0.0
24/12:00pm 17.4 17.2 12.9 75 2.5 S 6 11 3 6 1022.1 1021.8 0.0
24/11:30am 17.1 17.0 13.8 81 1.9 SSE 7 9 4 5 1022.4 1022.2 0.0
24/11:00am 16.1 16.6 15.0 93 0.6 S 6 9 3 5 1022.7 1022.5 0.0
24/10:30am 14.8 15.1 14.6 99 0.1 SW 6 7 3 4 1022.9 1022.7 0.0
24/10:00am 13.7 14.1 13.7 100 0.0 SW 4 6 2 3 1022.9 1022.7 0.0
24/09:30am 12.9 13.1 12.9 100 0.0 W 4 6 2 3 1022.8 1022.6 0.0
24/09:00am 12.4 12.0 12.4 100 0.0 WSW 6 7 3 4 1022.8 1022.6 0.2
24/08:30am 12.4 12.8 12.4 100 0.0 WNW 2 4 1 2 1022.6 1022.4 0.2
24/08:00am 12.3 12.6 12.3 100 0.0 W 2 4 1 2 1022.3 1022.0 0.2
24/07:30am 11.8 11.6 11.8 100 0.0 NW 4 4 2 2 1022.0 1021.7 0.2
24/07:00am 11.5 11.2 11.5 100 0.0 NNW 4 4 2 2 1021.7 1021.4 0.2
24/06:30am 11.6 11.0 11.6 100 0.0 NW 6 6 3 3 1021.5 1021.2 0.2
24/06:00am 11.8 11.2 11.8 100 0.0 NW 6 6 3 3 1021.2 1020.9 0.2
24/05:30am 12.6 12.3 12.6 100 0.0 WSW 6 7 3 4 1021.0 1020.7 0.2
24/05:00am 12.7 12.7 12.5 99 0.1 SSW 4 6 2 3 1020.8 1020.5 0.2
24/04:30am 12.2 12.1 12.0 99 0.1 SSW 4 6 2 3 1020.7 1020.4 0.2
24/04:00am 11.6 10.8 11.1 97 0.3 WSW 6 6 3 3 1020.4 1020.1 0.2
24/03:30am 11.5 10.7 10.9 96 0.3 WSW 6 7 3 4 1020.4 1020.1 0.0
24/03:00am 10.7 9.6 9.8 94 0.5 W 6 7 3 4 1020.3 1020.0 0.0
24/02:30am 9.9 8.9 8.7 92 0.6 WNW 4 7 2 4 1020.2 1019.9 0.0
24/02:00am 9.0 6.7 7.6 91 0.7 NW 9 9 5 5 1020.2 1019.9 0.0
24/01:30am 9.3 7.2 8.1 92 0.6 NW 9 9 5 5 1020.0 1019.7 0.0
24/01:00am 9.1 7.3 7.9 92 0.6 NNW 7 9 4 5 1019.8 1019.5 0.0
24/12:30am 9.3 7.7 8.1 92 0.6 NW 6 7 3 4 1019.8 1019.5 0.0
24/12:00am 8.9 7.1 7.8 93 0.5 NW 7 9 4 5 1019.9 1019.6 0.0
 
Date/Time
WST
Temp
°C
App
Temp
°C
Dew
Point
Rel
Hum
%
Delta-T
°C
Wind Press
QNH
hPa
Press
MSL
hPa
Rain
since 9 am
mm
Dir
 
Spd
km/h
Gust
km/h
Spd
kts
Gust
kts
23/11:30pm 8.7 7.0 7.6 93 0.5 NW 6 9 3 5 1019.8 1019.5 0.0
23/11:00pm 8.6 6.9 7.4 92 0.6 NNW 6 7 3 4 1019.6 1019.4 0.0
23/10:30pm 9.5 8.6 7.9 90 0.8 WSW 2 4 1 2 1019.6 1019.4 0.0
23/10:00pm 9.5 7.7 7.3 86 1.1 ENE 6 7 3 4 1019.5 1019.3 0.0
23/09:30pm 11.3 9.4 9.0 86 1.2 NE 9 9 5 5 1019.6 1019.4 0.0
23/09:00pm 10.9 9.3 8.7 86 1.1 ENE 7 9 4 5 1019.4 1019.2 0.0
23/08:30pm 11.5 9.5 8.7 83 1.4 ENE 9 11 5 6 1019.3 1019.1 0.0
23/08:00pm 11.3 9.3 8.5 83 1.4 ENE 9 11 5 6 1019.1 1018.9 0.0
23/07:30pm 11.7 9.0 9.1 84 1.3 ENE 13 13 7 7 1019.0 1018.8 0.0
23/07:00pm 11.2 9.1 8.2 82 1.5 E 9 9 5 5 1018.6 1018.4 0.0
23/06:30pm 12.1 10.0 8.4 78 1.9 E 9 9 5 5 1018.6 1018.4 0.0
23/06:00pm 13.3 11.3 8.8 74 2.3 ESE 9 9 5 5 1018.4 1018.1 0.0
23/05:30pm 12.9 10.4 8.2 73 2.4 SE 11 13 6 7 1018.0 1017.7 0.0
23/05:00pm 15.3 13.0 9.0 66 3.3 SSE 11 13 6 7 1017.7 1017.4 0.0
23/04:30pm 17.7 15.9 9.3 58 4.4 SSE 9 13 5 7 1017.4 1017.1 0.0
23/04:00pm 19.4 16.3 9.0 51 5.5 S 15 22 8 12 1017.1 1016.8 0.0
23/03:30pm 21.2 19.3 7.4 41 7.2 W 7 15 4 8 1016.9 1016.6 0.0
23/03:00pm 21.3 18.3 7.9 42 7.0 SW 13 19 7 10 1016.8 1016.5 0.0
23/02:30pm 21.4 18.7 7.3 40 7.3 W 11 17 6 9 1016.7 1016.4 0.0
23/02:00pm 21.3 17.9 7.5 41 7.2 WSW 15 22 8 12 1016.7 1016.4 0.0
23/01:30pm 21.2 18.2 7.8 42 7.0 WSW 13 19 7 10 1016.8 1016.5 0.0
23/01:00pm 20.9 17.5 7.5 42 7.0 WSW 15 20 8 11 1017.0 1016.7 0.0
23/12:30pm 20.6 17.2 7.6 43 6.8 WSW 15 22 8 12 1017.1 1016.8 0.0
23/12:00pm 20.5 16.7 7.5 43 6.7 WSW 17 24 9 13 1017.3 1017.0 0.0
23/11:30am 20.2 16.6 8.5 47 6.2 W 17 24 9 13 1017.6 1017.3 0.0
23/11:00am 19.8 15.9 8.5 48 5.9 W 19 28 10 15 1017.9 1017.6 0.0
23/10:30am 18.7 15.4 8.1 50 5.5 NW 15 20 8 11 1018.0 1017.7 0.0
23/10:00am 17.9 14.0 8.5 54 4.9 NNW 19 30 10 16 1018.3 1018.0 0.0
23/09:30am 16.1 12.1 8.1 59 4.1 NNW 19 28 10 15 1018.4 1018.1 0.0
23/09:00am 14.3 10.5 7.4 63 3.4 NNW 17 20 9 11 1018.6 1018.4 0.4
23/08:30am 13.7 11.0 7.2 65 3.2 NNW 11 20 6 11 1018.6 1018.4 0.4
23/08:00am 10.7 8.1 6.3 74 2.1 NNW 9 15 5 8 1018.6 1018.4 0.4
23/07:30am 10.8 6.4 6.4 74 2.1 N 19 32 10 17 1018.3 1018.0 0.4
23/07:00am 10.3 5.8 6.1 75 2.0 N 19 28 10 15 1018.3 1018.0 0.4
23/06:30am 10.4 5.3 6.0 74 2.1 N 22 35 12 19 1018.2 1017.9 0.4
23/06:00am 10.1 5.4 5.9 75 2.0 N 20 28 11 15 1018.0 1017.7 0.4
23/05:30am 10.6 5.7 5.2 69 2.5 N 20 32 11 17 1017.8 1017.5 0.4
23/05:00am 10.4 5.4 4.5 67 2.7 NNE 20 30 11 16 1017.7 1017.4 0.4
23/04:30am 9.7 4.4 4.9 72 2.2 NNE 22 32 12 17 1017.8 1017.5 0.4
23/04:00am 11.1 6.1 3.4 59 3.4 NNE 19 32 10 17 1017.8 1017.5 0.0
23/03:30am 10.6 5.4 3.4 61 3.2 NNE 20 28 11 15 1018.0 1017.7 0.0
23/03:00am 10.5 5.3 3.5 62 3.1 NNE 20 28 11 15 1018.0 1017.7 0.0
23/02:30am 10.4 4.8 3.7 63 3.0 NNE 22 30 12 16 1018.2 1017.9 0.0
23/02:00am 10.3 4.8 3.8 64 2.9 NNE 22 28 12 15 1018.4 1018.1 0.0
23/01:30am 10.4 4.8 3.7 63 3.0 NNE 22 32 12 17 1018.5 1018.3 0.0
23/01:00am 10.1 4.6 3.8 65 2.8 NNE 22 28 12 15 1018.7 1018.5 0.0
23/12:30am 10.1 4.9 3.8 65 2.8 NNE 20 26 11 14 1019.0 1018.8 0.0
23/12:00am 10.7 5.6 4.0 63 3.0 NE 20 24 11 13 1019.0 1018.8 0.0
 
Date/Time
WST
Temp
°C
App
Temp
°C
Dew
Point
Rel
Hum
%
Delta-T
°C
Wind Press
QNH
hPa
Press
MSL
hPa
Rain
since 9 am
mm
Dir
 
Spd
km/h
Gust
km/h
Spd
kts
Gust
kts
22/11:30pm 11.1 6.0 4.1 62 3.2 NE 20 28 11 15 1019.5 1019.3 0.0
22/11:00pm 11.3 5.9 4.5 63 3.1 NNE 22 30 12 16 1019.8 1019.5 0.0
22/10:30pm 11.1 5.8 4.8 65 2.9 NNE 22 28 12 15 1020.1 1019.8 0.0
22/10:00pm 10.9 6.5 5.0 67 2.7 NE 17 22 9 12 1020.2 1019.9 0.0
22/09:30pm 11.1 6.4 5.2 67 2.7 NE 19 24 10 13 1020.4 1020.1 0.0
22/09:00pm 11.1 6.5 5.8 70 2.5 NE 19 24 10 13 1020.6 1020.3 0.0
22/08:30pm 11.6 7.1 6.3 70 2.5 NE 19 24 10 13 1020.7 1020.4 0.0
22/08:00pm 12.0 8.0 6.5 69 2.6 ENE 17 20 9 11 1020.8 1020.5 0.0
22/07:30pm 12.7 9.0 6.3 65 3.1 ENE 15 19 8 10 1020.8 1020.5 0.0
22/07:00pm 12.9 9.0 7.1 68 2.8 ENE 17 19 9 10 1020.7 1020.4 0.0
22/06:30pm 12.4 9.3 7.1 70 2.6 ENE 13 15 7 8 1020.7 1020.4 0.0
22/06:00pm 13.2 10.1 7.4 68 2.9 ENE 13 17 7 9 1020.6 1020.3 0.0

Other Formats:

Comma delimited format used in spreadsheet applications
http://www.bom.gov.au/fwo/IDW60801/IDW60801.95644.axf

JavaScript Object Notation format (JSON) in row-major order
http://www.bom.gov.au/fwo/IDW60801/IDW60801.95644.json